NCAR-RAP Real-Time Weather Data

Output produced by METARs form (26 September 2018  02:22 UTC)
found at http://weather.rap.ucar.edu/surface/
 
Conditions at: KIND observed 26 September 2018  02:15 UTC
Temperature: 22.8°C (73°F)
Dewpoint: 21.1°C (70°F) [RH = 90%]
Pressure (altimeter): 29.91 inches Hg (1013.0 mb)
Winds: from the S (180 degrees) at 9 MPH (8 knots; 4.2 m/s)
Visibility: 10 or more miles (16+ km)
Ceiling: 1200 feet AGL
Clouds: broken clouds at 1200 feet AGL
broken clouds at 4900 feet AGL
overcast cloud deck at 10000 feet AGL
Present Weather: no significant weather observed at this time
KIND 260215Z 18008KT 10SM BKN012 BKN049 OVC100 23/21 A2991 RMK AO2 T02280211